sensor_id;sensor_type;location;lat;lon;timestamp;pressure;altitude;pressure_sealevel;temperature;humidity
17936;BME280;9093;52.062;4.508;2023-07-13T00:01:54;101611.47;;;19.90;63.03
17936;BME280;9093;52.062;4.508;2023-07-13T00:04:34;101613.69;;;19.85;62.95
17936;BME280;9093;52.062;4.508;2023-07-13T00:07:15;101610.22;;;19.83;62.84
17936;BME280;9093;52.062;4.508;2023-07-13T00:09:55;101608.28;;;19.85;63.04
17936;BME280;9093;52.062;4.508;2023-07-13T00:12:38;101611.69;;;19.87;62.83
17936;BME280;9093;52.062;4.508;2023-07-13T00:15:23;101615.03;;;19.91;62.89
17936;BME280;9093;52.062;4.508;2023-07-13T00:18:04;101607.50;;;19.94;62.82
17936;BME280;9093;52.062;4.508;2023-07-13T00:20:44;101605.78;;;19.93;62.66
17936;BME280;9093;52.062;4.508;2023-07-13T00:23:25;101616.38;;;19.96;62.68
17936;BME280;9093;52.062;4.508;2023-07-13T00:26:07;101608.38;;;19.95;62.76
17936;BME280;9093;52.062;4.508;2023-07-13T00:28:48;101609.25;;;19.95;63.00
17936;BME280;9093;52.062;4.508;2023-07-13T00:31:28;101616.63;;;19.93;62.90
17936;BME280;9093;52.062;4.508;2023-07-13T00:34:09;101620.31;;;19.92;62.83
17936;BME280;9093;52.062;4.508;2023-07-13T00:36:49;101621.19;;;19.93;62.70
17936;BME280;9093;52.062;4.508;2023-07-13T00:39:29;101627.97;;;19.87;62.96
17936;BME280;9093;52.062;4.508;2023-07-13T00:42:09;101622.53;;;19.87;62.92
17936;BME280;9093;52.062;4.508;2023-07-13T00:48:00;101617.38;;;19.84;62.95
17936;BME280;9093;52.062;4.508;2023-07-13T00:50:41;101617.22;;;19.86;62.84
17936;BME280;9093;52.062;4.508;2023-07-13T00:53:25;101614.16;;;19.79;62.89
17936;BME280;9093;52.062;4.508;2023-07-13T00:56:06;101627.00;;;19.77;62.89
17936;BME280;9093;52.062;4.508;2023-07-13T00:58:47;101630.06;;;19.73;62.86
17936;BME280;9093;52.062;4.508;2023-07-13T01:01:28;101624.50;;;19.74;62.99
17936;BME280;9093;52.062;4.508;2023-07-13T01:04:09;101622.66;;;19.75;62.87
17936;BME280;9093;52.062;4.508;2023-07-13T01:06:50;101621.94;;;19.73;62.67
17936;BME280;9093;52.062;4.508;2023-07-13T01:09:31;101627.22;;;19.74;62.64
17936;BME280;9093;52.062;4.508;2023-07-13T01:12:11;101631.66;;;19.75;62.52
17936;BME280;9093;52.062;4.508;2023-07-13T01:14:57;101630.31;;;19.70;62.66
17936;BME280;9093;52.062;4.508;2023-07-13T01:17:38;101627.69;;;19.68;62.42
17936;BME280;9093;52.062;4.508;2023-07-13T01:20:18;101630.53;;;19.66;62.73
17936;BME280;9093;52.062;4.508;2023-07-13T01:22:59;101632.41;;;19.66;62.52
17936;BME280;9093;52.062;4.508;2023-07-13T01:25:39;101629.56;;;19.67;62.42
17936;BME280;9093;52.062;4.508;2023-07-13T01:28:20;101635.13;;;19.66;62.69
17936;BME280;9093;52.062;4.508;2023-07-13T01:31:01;101644.72;;;19.59;62.74
17936;BME280;9093;52.062;4.508;2023-07-13T01:33:41;101648.13;;;19.61;62.32
17936;BME280;9093;52.062;4.508;2023-07-13T01:36:22;101642.72;;;19.61;62.39
17936;BME280;9093;52.062;4.508;2023-07-13T01:39:03;101643.72;;;19.60;62.57
17936;BME280;9093;52.062;4.508;2023-07-13T01:41:43;101641.25;;;19.57;62.39
17936;BME280;9093;52.062;4.508;2023-07-13T01:44:24;101644.06;;;19.55;62.39
17936;BME280;9093;52.062;4.508;2023-07-13T01:47:04;101641.72;;;19.51;62.36
17936;BME280;9093;52.062;4.508;2023-07-13T01:49:45;101643.94;;;19.46;62.44
17936;BME280;9093;52.062;4.508;2023-07-13T01:52:27;101647.59;;;19.45;62.53
17936;BME280;9093;52.062;4.508;2023-07-13T01:55:08;101640.44;;;19.44;62.56
17936;BME280;9093;52.062;4.508;2023-07-13T01:57:48;101643.94;;;19.46;62.42
17936;BME280;9093;52.062;4.508;2023-07-13T02:00:29;101654.53;;;19.49;62.42
17936;BME280;9093;52.062;4.508;2023-07-13T02:03:09;101649.09;;;19.49;62.20
17936;BME280;9093;52.062;4.508;2023-07-13T02:05:50;101649.25;;;19.47;62.39
17936;BME280;9093;52.062;4.508;2023-07-13T02:08:31;101653.00;;;19.45;62.25
17936;BME280;9093;52.062;4.508;2023-07-13T02:11:12;101656.97;;;19.41;62.69
17936;BME280;9093;52.062;4.508;2023-07-13T02:13:52;101660.63;;;19.40;62.49
17936;BME280;9093;52.062;4.508;2023-07-13T02:16:33;101657.19;;;19.38;62.54
17936;BME280;9093;52.062;4.508;2023-07-13T02:19:13;101659.13;;;19.36;62.51
17936;BME280;9093;52.062;4.508;2023-07-13T02:21:53;101660.25;;;19.33;62.83
17936;BME280;9093;52.062;4.508;2023-07-13T02:24:33;101651.38;;;19.31;62.68
17936;BME280;9093;52.062;4.508;2023-07-13T02:27:14;101648.78;;;19.29;62.39
17936;BME280;9093;52.062;4.508;2023-07-13T02:29:54;101650.50;;;19.31;62.52
17936;BME280;9093;52.062;4.508;2023-07-13T02:32:34;101640.78;;;19.28;63.10
17936;BME280;9093;52.062;4.508;2023-07-13T02:35:15;101650.22;;;19.22;62.46
17936;BME280;9093;52.062;4.508;2023-07-13T02:37:55;101649.50;;;19.20;62.53
17936;BME280;9093;52.062;4.508;2023-07-13T02:40:36;101648.75;;;19.18;62.81
17936;BME280;9093;52.062;4.508;2023-07-13T02:43:16;101643.34;;;19.18;62.33
17936;BME280;9093;52.062;4.508;2023-07-13T02:45:58;101652.44;;;19.17;62.70
17936;BME280;9093;52.062;4.508;2023-07-13T02:48:40;101657.84;;;19.17;62.49
17936;BME280;9093;52.062;4.508;2023-07-13T02:51:21;101659.28;;;19.10;62.57
17936;BME280;9093;52.062;4.508;2023-07-13T02:54:02;101666.69;;;19.08;62.64
17936;BME280;9093;52.062;4.508;2023-07-13T02:56:43;101658.03;;;19.03;62.72
17936;BME280;9093;52.062;4.508;2023-07-13T02:59:23;101658.03;;;19.03;62.75
17936;BME280;9093;52.062;4.508;2023-07-13T03:02:04;101659.53;;;19.07;62.71
17936;BME280;9093;52.062;4.508;2023-07-13T03:04:44;101653.63;;;19.02;62.69
17936;BME280;9093;52.062;4.508;2023-07-13T03:07:25;101661.75;;;19.02;62.78
17936;BME280;9093;52.062;4.508;2023-07-13T03:10:06;101666.91;;;19.05;63.00
17936;BME280;9093;52.062;4.508;2023-07-13T03:12:46;101669.72;;;19.04;62.93
17936;BME280;9093;52.062;4.508;2023-07-13T03:15:26;101665.53;;;19.00;63.01
17936;BME280;9093;52.062;4.508;2023-07-13T03:18:07;101665.53;;;19.00;63.25
17936;BME280;9093;52.062;4.508;2023-07-13T03:20:50;101654.81;;;18.98;63.21
17936;BME280;9093;52.062;4.508;2023-07-13T03:23:31;101659.50;;;18.96;63.24
17936;BME280;9093;52.062;4.508;2023-07-13T03:26:15;101656.16;;;18.93;63.47
17936;BME280;9093;52.062;4.508;2023-07-13T03:28:55;101658.25;;;18.89;63.45
17936;BME280;9093;52.062;4.508;2023-07-13T03:31:36;101658.09;;;18.91;63.37
17936;BME280;9093;52.062;4.508;2023-07-13T03:34:17;101658.88;;;18.93;63.44
17936;BME280;9093;52.062;4.508;2023-07-13T03:36:57;101660.69;;;18.92;63.39
17936;BME280;9093;52.062;4.508;2023-07-13T03:39:38;101662.91;;;18.87;63.71
17936;BME280;9093;52.062;4.508;2023-07-13T03:42:18;101665.72;;;18.85;63.95
17936;BME280;9093;52.062;4.508;2023-07-13T03:44:58;101667.44;;;18.86;63.87
17936;BME280;9093;52.062;4.508;2023-07-13T03:47:39;101667.44;;;18.86;63.89
17936;BME280;9093;52.062;4.508;2023-07-13T03:50:19;101669.06;;;18.89;63.94
17936;BME280;9093;52.062;4.508;2023-07-13T03:52:59;101672.50;;;18.91;64.04
17936;BME280;9093;52.062;4.508;2023-07-13T03:55:40;101672.28;;;18.94;64.11
17936;BME280;9093;52.062;4.508;2023-07-13T03:58:33;101673.16;;;18.95;63.99
17936;BME280;9093;52.062;4.508;2023-07-13T04:01:15;101674.75;;;18.97;64.16
17936;BME280;9093;52.062;4.508;2023-07-13T04:03:56;101676.25;;;19.01;64.11
17936;BME280;9093;52.062;4.508;2023-07-13T04:06:37;101682.53;;;19.02;63.90
17936;BME280;9093;52.062;4.508;2023-07-13T04:09:17;101686.09;;;19.02;63.97
17936;BME280;9093;52.062;4.508;2023-07-13T04:11:58;101684.13;;;19.04;64.07
17936;BME280;9093;52.062;4.508;2023-07-13T04:14:38;101693.00;;;19.06;64.19
17936;BME280;9093;52.062;4.508;2023-07-13T04:17:19;101689.22;;;19.09;64.12
17936;BME280;9093;52.062;4.508;2023-07-13T04:20:00;101681.72;;;19.12;64.25
17936;BME280;9093;52.062;4.508;2023-07-13T04:22:41;101690.44;;;19.16;64.34
17936;BME280;9093;52.062;4.508;2023-07-13T04:25:21;101686.53;;;19.20;64.34
17936;BME280;9093;52.062;4.508;2023-07-13T04:28:03;101693.56;;;19.22;64.38
17936;BME280;9093;52.062;4.508;2023-07-13T04:30:43;101696.03;;;19.25;64.56
17936;BME280;9093;52.062;4.508;2023-07-13T04:33:24;101714.00;;;19.26;64.57
17936;BME280;9093;52.062;4.508;2023-07-13T04:36:05;101701.44;;;19.25;64.47
17936;BME280;9093;52.062;4.508;2023-07-13T04:38:45;101703.41;;;19.23;64.78
17936;BME280;9093;52.062;4.508;2023-07-13T04:41:26;101708.59;;;19.26;64.69
17936;BME280;9093;52.062;4.508;2023-07-13T04:44:06;101711.06;;;19.29;64.77
17936;BME280;9093;52.062;4.508;2023-07-13T04:46:47;101704.44;;;19.34;64.70
17936;BME280;9093;52.062;4.508;2023-07-13T04:49:27;101705.31;;;19.34;64.93
17936;BME280;9093;52.062;4.508;2023-07-13T04:52:07;101712.09;;;19.40;65.03
17936;BME280;9093;52.062;4.508;2023-07-13T04:54:48;101705.69;;;19.41;64.97
17936;BME280;9093;52.062;4.508;2023-07-13T04:57:28;101708.28;;;19.42;65.15
17936;BME280;9093;52.062;4.508;2023-07-13T05:00:09;101720.72;;;19.45;65.06
17936;BME280;9093;52.062;4.508;2023-07-13T05:02:50;101715.09;;;19.48;65.00
17936;BME280;9093;52.062;4.508;2023-07-13T05:05:30;101722.13;;;19.50;65.16
17936;BME280;9093;52.062;4.508;2023-07-13T05:08:10;101716.34;;;19.55;65.13
17936;BME280;9093;52.062;4.508;2023-07-13T05:10:51;101730.41;;;19.60;65.05
17936;BME280;9093;52.062;4.508;2023-07-13T05:13:32;101718.56;;;19.61;65.22
17936;BME280;9093;52.062;4.508;2023-07-13T05:16:12;101730.06;;;19.64;65.34
17936;BME280;9093;52.062;4.508;2023-07-13T05:18:53;101726.22;;;19.67;65.26
17936;BME280;9093;52.062;4.508;2023-07-13T05:21:34;101728.72;;;19.70;65.05
17936;BME280;9093;52.062;4.508;2023-07-13T05:24:14;101737.81;;;19.69;65.16
17936;BME280;9093;52.062;4.508;2023-07-13T05:26:55;101729.78;;;19.67;65.38
17936;BME280;9093;52.062;4.508;2023-07-13T05:29:35;101730.16;;;19.63;65.42
17936;BME280;9093;52.062;4.508;2023-07-13T05:32:17;101734.81;;;19.61;65.44
17936;BME280;9093;52.062;4.508;2023-07-13T05:34:57;101740.50;;;19.58;65.55
17936;BME280;9093;52.062;4.508;2023-07-13T05:37:38;101737.03;;;19.56;65.38
17936;BME280;9093;52.062;4.508;2023-07-13T05:40:18;101744.19;;;19.57;65.46
17936;BME280;9093;52.062;4.508;2023-07-13T05:42:59;101743.22;;;19.58;65.37
17936;BME280;9093;52.062;4.508;2023-07-13T05:45:39;101749.13;;;19.63;65.34
17936;BME280;9093;52.062;4.508;2023-07-13T05:48:20;101754.19;;;19.67;64.99
17936;BME280;9093;52.062;4.508;2023-07-13T05:51:01;101755.81;;;19.70;65.13
17936;BME280;9093;52.062;4.508;2023-07-13T05:53:41;101760.00;;;19.74;64.80
17936;BME280;9093;52.062;4.508;2023-07-13T05:56:21;101763.34;;;19.78;64.84
17936;BME280;9093;52.062;4.508;2023-07-13T05:59:02;101761.25;;;19.81;64.61
17936;BME280;9093;52.062;4.508;2023-07-13T06:01:42;101764.72;;;19.83;64.92
17936;BME280;9093;52.062;4.508;2023-07-13T06:04:22;101762.00;;;19.83;64.56
17936;BME280;9093;52.062;4.508;2023-07-13T06:07:03;101763.47;;;19.87;64.43
17936;BME280;9093;52.062;4.508;2023-07-13T06:09:43;101764.97;;;19.91;64.35
17936;BME280;9093;52.062;4.508;2023-07-13T06:12:23;101766.44;;;19.95;64.19
17936;BME280;9093;52.062;4.508;2023-07-13T06:15:04;101778.06;;;19.97;64.18
17936;BME280;9093;52.062;4.508;2023-07-13T06:17:45;101784.19;;;19.99;64.18
17936;BME280;9093;52.062;4.508;2023-07-13T06:20:25;101778.53;;;20.02;64.01
17936;BME280;9093;52.062;4.508;2023-07-13T06:23:05;101777.41;;;20.05;64.14
17936;BME280;9093;52.062;4.508;2023-07-13T06:25:46;101786.56;;;20.04;64.10
17936;BME280;9093;52.062;4.508;2023-07-13T06:28:26;101790.25;;;20.03;63.83
17936;BME280;9093;52.062;4.508;2023-07-13T06:31:09;101785.94;;;20.00;63.92
17936;BME280;9093;52.062;4.508;2023-07-13T06:33:49;101782.94;;;19.92;63.95
17936;BME280;9093;52.062;4.508;2023-07-13T06:36:29;101780.13;;;19.94;63.87
17936;BME280;9093;52.062;4.508;2023-07-13T06:39:10;101795.28;;;19.96;63.72
17936;BME280;9093;52.062;4.508;2023-07-13T06:41:50;101786.69;;;20.02;63.51
17936;BME280;9093;52.062;4.508;2023-07-13T06:44:30;101792.38;;;20.11;63.38
17936;BME280;9093;52.062;4.508;2023-07-13T06:47:11;101788.91;;;20.20;63.27
17936;BME280;9093;52.062;4.508;2023-07-13T06:49:51;101788.31;;;20.27;63.12
17936;BME280;9093;52.062;4.508;2023-07-13T06:52:31;101797.63;;;20.36;63.04
17936;BME280;9093;52.062;4.508;2023-07-13T06:55:12;101796.09;;;20.43;63.02
17936;BME280;9093;52.062;4.508;2023-07-13T06:57:52;101796.00;;;20.44;62.99
17936;BME280;9093;52.062;4.508;2023-07-13T07:00:32;101811.16;;;20.47;62.81
17936;BME280;9093;52.062;4.508;2023-07-13T07:03:12;101806.34;;;20.51;62.77
17936;BME280;9093;52.062;4.508;2023-07-13T07:05:53;101812.63;;;20.51;62.82
17936;BME280;9093;52.062;4.508;2023-07-13T07:08:33;101809.19;;;20.49;62.71
17936;BME280;9093;52.062;4.508;2023-07-13T07:11:16;101817.19;;;20.51;62.41
17936;BME280;9093;52.062;4.508;2023-07-13T07:13:57;101808.34;;;20.49;62.68
17936;BME280;9093;52.062;4.508;2023-07-13T07:16:37;101815.34;;;20.51;62.44
17936;BME280;9093;52.062;4.508;2023-07-13T07:19:18;101822.63;;;20.51;62.23
17936;BME280;9093;52.062;4.508;2023-07-13T07:21:58;101809.19;;;20.49;62.23
17936;BME280;9093;52.062;4.508;2023-07-13T07:24:38;101818.19;;;20.50;62.38
17936;BME280;9093;52.062;4.508;2023-07-13T07:27:19;101815.72;;;20.46;62.39
17936;BME280;9093;52.062;4.508;2023-07-13T07:30:00;101833.38;;;20.41;62.38
17936;BME280;9093;52.062;4.508;2023-07-13T07:32:40;101831.84;;;20.37;62.39
17936;BME280;9093;52.062;4.508;2023-07-13T07:35:21;101823.19;;;20.32;62.26
17936;BME280;9093;52.062;4.508;2023-07-13T07:38:02;101826.81;;;20.32;62.24
17936;BME280;9093;52.062;4.508;2023-07-13T07:40:43;101835.59;;;20.36;62.24
17936;BME280;9093;52.062;4.508;2023-07-13T07:43:24;101833.38;;;20.41;62.12
17936;BME280;9093;52.062;4.508;2023-07-13T07:46:04;101854.56;;;20.47;61.91
17936;BME280;9093;52.062;4.508;2023-07-13T07:48:44;101838.03;;;20.50;61.76
17936;BME280;9093;52.062;4.508;2023-07-13T07:51:24;101842.25;;;20.54;61.88
17936;BME280;9093;52.062;4.508;2023-07-13T07:54:05;101836.56;;;20.57;61.90
17936;BME280;9093;52.062;4.508;2023-07-13T07:56:46;101839.28;;;20.57;61.68
17936;BME280;9093;52.062;4.508;2023-07-13T07:59:26;101844.97;;;20.54;61.86
17936;BME280;9093;52.062;4.508;2023-07-13T08:02:09;101840.25;;;20.56;61.63
17936;BME280;9093;52.062;4.508;2023-07-13T08:04:49;101853.59;;;20.59;61.61
17936;BME280;9093;52.062;4.508;2023-07-13T08:07:30;101851.38;;;20.64;61.57
17936;BME280;9093;52.062;4.508;2023-07-13T08:10:12;101846.19;;;20.72;61.29
17936;BME280;9093;52.062;4.508;2023-07-13T08:12:52;101850.66;;;20.73;61.31
17936;BME280;9093;52.062;4.508;2023-07-13T08:15:32;101852.97;;;20.78;60.90
17936;BME280;9093;52.062;4.508;2023-07-13T08:18:13;101861.13;;;20.78;61.07
17936;BME280;9093;52.062;4.508;2023-07-13T08:20:53;101865.69;;;20.77;60.96
17936;BME280;9093;52.062;4.508;2023-07-13T08:23:36;101864.44;;;20.70;61.13
17936;BME280;9093;52.062;4.508;2023-07-13T08:26:16;101849.78;;;20.73;60.91
17936;BME280;9093;52.062;4.508;2023-07-13T08:28:57;101854.56;;;20.69;60.98
17936;BME280;9093;52.062;4.508;2023-07-13T08:31:38;101859.28;;;20.67;60.71
17936;BME280;9093;52.062;4.508;2023-07-13T08:34:18;101852.34;;;20.63;60.84
17936;BME280;9093;52.062;4.508;2023-07-13T08:36:59;101853.34;;;20.62;60.76
17936;BME280;9093;52.062;4.508;2023-07-13T08:39:39;101853.59;;;20.59;60.78
17936;BME280;9093;52.062;4.508;2023-07-13T08:42:32;101859.03;;;20.59;60.83
17936;BME280;9093;52.062;4.508;2023-07-13T08:48:27;101863.97;;;20.65;60.48
17936;BME280;9093;52.062;4.508;2023-07-13T08:51:22;101867.66;;;20.64;60.55
17936;BME280;9093;52.062;4.508;2023-07-13T08:57:15;101856.06;;;20.62;60.47
17936;BME280;9093;52.062;4.508;2023-07-13T08:59:57;101862.22;;;20.64;60.07
17936;BME280;9093;52.062;4.508;2023-07-13T09:02:54;101857.41;;;20.68;60.01
17936;BME280;9093;52.062;4.508;2023-07-13T09:05:38;101865.91;;;20.74;60.06
17936;BME280;9093;52.062;4.508;2023-07-13T09:17:08;101868.50;;;21.09;59.60
17936;BME280;9093;52.062;4.508;2023-07-13T09:20:43;101882.19;;;21.08;59.15
17936;BME280;9093;52.062;4.508;2023-07-13T09:23:01;101881.97;;;21.11;59.22
17936;BME280;9093;52.062;4.508;2023-07-13T09:25:42;101880.84;;;21.13;59.17
17936;BME280;9093;52.062;4.508;2023-07-13T09:28:26;101874.94;;;21.19;59.49
17936;BME280;9093;52.062;4.508;2023-07-13T09:31:15;101881.34;;;21.30;59.14
17936;BME280;9093;52.062;4.508;2023-07-13T09:33:56;101879.97;;;21.35;59.16
17936;BME280;9093;52.062;4.508;2023-07-13T09:36:36;101878.25;;;21.34;58.84
17936;BME280;9093;52.062;4.508;2023-07-13T09:39:26;101884.78;;;21.32;58.97
17936;BME280;9093;52.062;4.508;2023-07-13T09:44:56;101896.50;;;21.32;58.70
17936;BME280;9093;52.062;4.508;2023-07-13T09:47:40;101894.53;;;21.34;58.82
17936;BME280;9093;52.062;4.508;2023-07-13T09:50:20;101899.97;;;21.34;58.70
17936;BME280;9093;52.062;4.508;2023-07-13T09:53:03;101900.84;;;21.35;58.41
17936;BME280;9093;52.062;4.508;2023-07-13T09:55:47;101901.94;;;21.32;58.60
17936;BME280;9093;52.062;4.508;2023-07-13T09:58:30;101899.03;;;21.24;58.53
17936;BME280;9093;52.062;4.508;2023-07-13T10:01:12;101899.75;;;21.26;58.23
17936;BME280;9093;52.062;4.508;2023-07-13T10:03:54;101911.09;;;21.31;58.08
17936;BME280;9093;52.062;4.508;2023-07-13T10:06:34;101909.88;;;21.35;58.28
17936;BME280;9093;52.062;4.508;2023-07-13T10:09:16;101921.81;;;21.44;58.14
17936;BME280;9093;52.062;4.508;2023-07-13T10:11:57;101920.97;;;21.43;58.11
17936;BME280;9093;52.062;4.508;2023-07-13T10:14:37;101932.94;;;21.41;58.22
17936;BME280;9093;52.062;4.508;2023-07-13T10:17:31;101945.66;;;21.40;58.37
17936;BME280;9093;52.062;4.508;2023-07-13T10:20:11;101935.78;;;21.39;57.87
17936;BME280;9093;52.062;4.508;2023-07-13T10:25:42;101937.28;;;21.43;57.87
17936;BME280;9093;52.062;4.508;2023-07-13T10:28:35;101944.06;;;21.49;57.74
17936;BME280;9093;52.062;4.508;2023-07-13T10:31:16;101936.78;;;21.49;57.82
17936;BME280;9093;52.062;4.508;2023-07-13T10:33:57;101937.75;;;21.48;57.53
17936;BME280;9093;52.062;4.508;2023-07-13T10:36:46;101944.66;;;21.52;57.50
17936;BME280;9093;52.062;4.508;2023-07-13T10:39:28;101947.13;;;21.55;57.17
17936;BME280;9093;52.062;4.508;2023-07-13T10:42:24;101933.28;;;21.58;57.35
17936;BME280;9093;52.062;4.508;2023-07-13T10:45:20;101952.06;;;21.61;56.93
17936;BME280;9093;52.062;4.508;2023-07-13T10:48:01;101949.06;;;21.64;57.15
17936;BME280;9093;52.062;4.508;2023-07-13T10:50:44;101946.63;;;21.61;56.76
17936;BME280;9093;52.062;4.508;2023-07-13T10:53:31;101946.75;;;21.60;56.87
17936;BME280;9093;52.062;4.508;2023-07-13T10:56:30;101956.34;;;21.64;56.48
17936;BME280;9093;52.062;4.508;2023-07-13T10:59:27;101954.97;;;21.70;56.32
17936;BME280;9093;52.062;4.508;2023-07-13T11:04:48;101954.69;;;21.84;56.28
17936;BME280;9093;52.062;4.508;2023-07-13T11:07:31;101959.41;;;21.82;56.70
17936;BME280;9093;52.062;4.508;2023-07-13T11:10:54;101958.81;;;21.78;56.72
17936;BME280;9093;52.062;4.508;2023-07-13T11:25:06;101951.16;;;22.15;55.55
17936;BME280;9093;52.062;4.508;2023-07-13T11:28:14;101968.44;;;22.25;55.61
17936;BME280;9093;52.062;4.508;2023-07-13T11:36:18;101962.00;;;22.47;55.01
17936;BME280;9093;52.062;4.508;2023-07-13T11:39:05;101960.59;;;22.53;54.89
17936;BME280;9093;52.062;4.508;2023-07-13T11:41:54;101955.91;;;22.55;54.68
17936;BME280;9093;52.062;4.508;2023-07-13T11:44:46;101963.53;;;22.61;54.32
17936;BME280;9093;52.062;4.508;2023-07-13T11:47:26;101962.75;;;22.70;54.13
17936;BME280;9093;52.062;4.508;2023-07-13T11:50:19;101953.34;;;22.74;54.29
17936;BME280;9093;52.062;4.508;2023-07-13T11:53:00;101973.38;;;22.73;53.81
17936;BME280;9093;52.062;4.508;2023-07-13T11:55:40;101977.34;;;22.69;54.07
17936;BME280;9093;52.062;4.508;2023-07-13T11:58:24;101978.34;;;22.68;53.83
17936;BME280;9093;52.062;4.508;2023-07-13T12:01:05;101992.50;;;22.62;53.50
17936;BME280;9093;52.062;4.508;2023-07-13T12:03:45;101987.56;;;22.56;52.89
17936;BME280;9093;52.062;4.508;2023-07-13T12:06:34;101967.53;;;22.57;53.16
17936;BME280;9093;52.062;4.508;2023-07-13T12:09:16;101963.53;;;22.61;53.08
17936;BME280;9093;52.062;4.508;2023-07-13T12:11:57;101966.72;;;22.66;52.75
17936;BME280;9093;52.062;4.508;2023-07-13T12:14:40;101973.63;;;22.70;52.60
17936;BME280;9093;52.062;4.508;2023-07-13T12:17:23;101980.56;;;22.74;52.71
17936;BME280;9093;52.062;4.508;2023-07-13T12:20:17;101972.84;;;22.79;52.29
17936;BME280;9093;52.062;4.508;2023-07-13T12:23:00;101979.81;;;22.93;51.78
17936;BME280;9093;52.062;4.508;2023-07-13T12:25:42;101982.56;;;23.02;51.74
17936;BME280;9093;52.062;4.508;2023-07-13T12:28:35;101981.09;;;23.19;50.87
17936;BME280;9093;52.062;4.508;2023-07-13T12:31:47;101974.00;;;23.37;50.64
17936;BME280;9093;52.062;4.508;2023-07-13T12:34:28;101984.41;;;23.53;50.42
17936;BME280;9093;52.062;4.508;2023-07-13T12:37:10;101980.41;;;23.57;50.03
17936;BME280;9093;52.062;4.508;2023-07-13T12:39:52;101991.31;;;23.57;49.66
17936;BME280;9093;52.062;4.508;2023-07-13T12:42:33;101969.91;;;23.52;49.47
17936;BME280;9093;52.062;4.508;2023-07-13T12:45:22;101966.19;;;23.53;49.59
17936;BME280;9093;52.062;4.508;2023-07-13T12:48:10;101976.13;;;23.64;49.74
17936;BME280;9093;52.062;4.508;2023-07-13T12:50:54;101973.25;;;23.65;49.38
17936;BME280;9093;52.062;4.508;2023-07-13T12:53:39;101974.97;;;23.67;49.66
17936;BME280;9093;52.062;4.508;2023-07-13T12:56:22;101986.75;;;23.67;49.27
17936;BME280;9093;52.062;4.508;2023-07-13T12:59:04;101976.56;;;23.69;49.60
17936;BME280;9093;52.062;4.508;2023-07-13T13:01:46;101980.72;;;23.73;49.53
17936;BME280;9093;52.062;4.508;2023-07-13T13:04:26;101980.72;;;23.73;49.27
17936;BME280;9093;52.062;4.508;2023-07-13T13:07:09;101991.19;;;23.68;49.59
17936;BME280;9093;52.062;4.508;2023-07-13T13:09:49;101989.59;;;23.56;49.75
17936;BME280;9093;52.062;4.508;2023-07-13T13:12:30;101983.41;;;23.54;49.75
17936;BME280;9093;52.062;4.508;2023-07-13T13:15:12;101992.03;;;23.59;49.83
17936;BME280;9093;52.062;4.508;2023-07-13T13:17:52;101994.50;;;23.62;49.98
17936;BME280;9093;52.062;4.508;2023-07-13T13:20:33;102003.22;;;23.56;50.13
17936;BME280;9093;52.062;4.508;2023-07-13T13:23:15;101998.22;;;23.61;49.79
17936;BME280;9093;52.062;4.508;2023-07-13T13:25:57;102008.56;;;23.67;49.67
17936;BME280;9093;52.062;4.508;2023-07-13T13:28:38;102005.44;;;23.81;49.51
17936;BME280;9093;52.062;4.508;2023-07-13T13:31:18;102003.72;;;23.80;49.46
17936;BME280;9093;52.062;4.508;2023-07-13T13:33:59;102002.84;;;23.80;49.18
17936;BME280;9093;52.062;4.508;2023-07-13T13:36:40;101997.13;;;23.92;48.90
17936;BME280;9093;52.062;4.508;2023-07-13T13:39:23;102001.47;;;24.04;49.10
17936;BME280;9093;52.062;4.508;2023-07-13T13:42:04;102005.78;;;24.07;48.78
17936;BME280;9093;52.062;4.508;2023-07-13T13:44:45;101997.44;;;24.18;48.62
17936;BME280;9093;52.062;4.508;2023-07-13T13:47:30;102007.38;;;24.29;48.20
17936;BME280;9093;52.062;4.508;2023-07-13T13:50:16;101994.91;;;24.46;48.31
17936;BME280;9093;52.062;4.508;2023-07-13T13:52:57;102012.28;;;24.54;47.84
17936;BME280;9093;52.062;4.508;2023-07-13T13:55:38;101994.03;;;24.55;47.63
17936;BME280;9093;52.062;4.508;2023-07-13T13:58:19;102009.81;;;24.61;47.98
17936;BME280;9093;52.062;4.508;2023-07-13T14:01:00;102002.63;;;24.69;47.86
17936;BME280;9093;52.062;4.508;2023-07-13T14:03:40;102003.34;;;24.81;47.51
17936;BME280;9093;52.062;4.508;2023-07-13T14:06:21;102019.00;;;24.89;47.05
17936;BME280;9093;52.062;4.508;2023-07-13T14:09:01;101998.59;;;24.83;46.98
17936;BME280;9093;52.062;4.508;2023-07-13T14:11:43;102008.66;;;24.82;47.27
17936;BME280;9093;52.062;4.508;2023-07-13T14:14:24;102008.34;;;24.85;46.95
17936;BME280;9093;52.062;4.508;2023-07-13T14:17:21;102010.25;;;24.95;47.37
17936;BME280;9093;52.062;4.508;2023-07-13T14:20:02;102005.59;;;25.05;47.20
17936;BME280;9093;52.062;4.508;2023-07-13T14:22:45;102014.06;;;25.11;46.82
17936;BME280;9093;52.062;4.508;2023-07-13T14:25:25;102008.59;;;25.21;46.90
17936;BME280;9093;52.062;4.508;2023-07-13T14:30:58;102006.44;;;25.52;45.95
17936;BME280;9093;52.062;4.508;2023-07-13T14:33:38;102002.06;;;25.69;46.28
17936;BME280;9093;52.062;4.508;2023-07-13T14:36:32;102005.00;;;25.85;45.56
17936;BME280;9093;52.062;4.508;2023-07-13T14:39:18;102013.06;;;25.49;46.67
17936;BME280;9093;52.062;4.508;2023-07-13T14:41:59;102021.78;;;25.35;46.77
17936;BME280;9093;52.062;4.508;2023-07-13T14:44:39;102004.78;;;25.32;46.72
17936;BME280;9093;52.062;4.508;2023-07-13T14:47:20;102018.72;;;25.38;46.31
17936;BME280;9093;52.062;4.508;2023-07-13T14:50:01;101997.56;;;25.40;46.54
17936;BME280;9093;52.062;4.508;2023-07-13T14:52:42;101998.22;;;25.52;46.34
17936;BME280;9093;52.062;4.508;2023-07-13T14:55:23;101993.78;;;25.60;46.29
17936;BME280;9093;52.062;4.508;2023-07-13T14:58:06;101999.72;;;25.74;46.05
17936;BME280;9093;52.062;4.508;2023-07-13T15:00:46;101998.97;;;25.99;45.67
17936;BME280;9093;52.062;4.508;2023-07-13T15:03:28;101997.75;;;26.11;45.47
17936;BME280;9093;52.062;4.508;2023-07-13T15:06:12;101995.94;;;26.20;45.18